Terminal Aerodrome Forecast
Issued by NWS Raleigh/Durham, NC

Home | Current Version | Previous Version | Text Only | Print | Product List | Glossary On
Versions: 1 2 3 4 5 6 7 8 9 10 11 12 13 14 15 16 17 18 19 20 21 22 23 24 25 26 27 28 29 30 31 32 33 34 35 36 37 38 39 40
000
FTUS42 KRAH 251120
TAFRDU
TAF
KRDU 251120Z 2512/2612 VRB03KT P6SM BKN100
      TEMPO 2512/2515 P6SM -RA OVC040
     FM251500 12004KT 5SM -RA OVC025
     FM252000 16005KT 4SM -RA BR OVC007
     FM260300 VRB03KT 2SM BR OVC005=

USA.gov is the U.S. government's official web portal to all federal, state and local government web resources and services.